createdAt,value
2023-04-02T00:00:19.141Z,55.67
2023-04-02T00:02:49.784Z,55.58
2023-04-02T00:05:52.213Z,55.91
2023-04-02T00:08:38.897Z,56.12
2023-04-02T00:11:07.784Z,56.17
2023-04-02T00:13:37.707Z,56.54
2023-04-02T00:16:08.440Z,56.48
2023-04-02T00:18:43.739Z,56.38
2023-04-02T00:21:18.205Z,56.18
2023-04-02T00:23:47.716Z,55.77
2023-04-02T00:26:38.910Z,56.13
2023-04-02T00:29:08.373Z,55.65
2023-04-02T00:31:42.065Z,55.69
2023-04-02T00:34:16.461Z,55.87
2023-04-02T00:36:46.704Z,55.95
2023-04-02T00:39:20.914Z,55.88
2023-04-02T00:41:58.852Z,55.89
2023-04-02T00:44:32.824Z,55.91
2023-04-02T00:47:09.316Z,55.81
2023-04-02T00:49:40.601Z,56.12
2023-04-02T00:52:09.864Z,56.27
2023-04-02T00:54:44.006Z,56.11
2023-04-02T00:57:18.540Z,56.26
2023-04-02T00:59:56.293Z,56.38
2023-04-02T01:02:31.138Z,56.82
2023-04-02T01:05:02.377Z,56.69
2023-04-02T01:07:46.105Z,56.69
2023-04-02T01:10:41.546Z,57.18
2023-04-02T01:13:21.866Z,56.73
2023-04-02T01:15:56.726Z,56.80
2023-04-02T01:18:46.470Z,56.90
2023-04-02T01:21:37.191Z,56.88
2023-04-02T01:24:07.384Z,57.11
2023-04-02T01:26:53.235Z,56.94
2023-04-02T01:29:24.970Z,56.92
2023-04-02T01:31:55.073Z,57.23
2023-04-02T01:34:26.752Z,56.98
2023-04-02T01:37:08.125Z,57.50
2023-04-02T01:39:49.082Z,57.24
2023-04-02T01:42:23.006Z,57.47
2023-04-02T01:44:54.231Z,57.62
2023-04-02T01:47:27.461Z,57.70
2023-04-02T01:49:59.413Z,57.82
2023-04-02T01:52:37.815Z,58.06
2023-04-02T01:55:07.754Z,58.51
2023-04-02T01:57:36.028Z,58.80
2023-04-02T02:00:10.836Z,58.98
2023-04-02T02:02:39.126Z,59.54
2023-04-02T02:05:13.573Z,59.82
2023-04-02T02:07:42.166Z,59.76
2023-04-02T02:10:15.623Z,60.62
2023-04-02T02:12:46.007Z,60.48
2023-04-02T02:15:19.724Z,60.19
2023-04-02T02:17:48.646Z,59.96
2023-04-02T02:20:17.929Z,60.01
2023-04-02T02:22:48.491Z,60.04
2023-04-02T02:25:20.846Z,60.34
2023-04-02T02:27:54.672Z,59.81
2023-04-02T02:30:28.579Z,60.50
2023-04-02T02:33:03.606Z,60.83
2023-04-02T02:35:37.653Z,60.58
2023-04-02T02:38:28.749Z,61.05
2023-04-02T02:41:01.974Z,60.29
2023-04-02T02:43:30.416Z,60.33
2023-04-02T02:46:00.400Z,60.19
2023-04-02T02:48:35.922Z,59.88
2023-04-02T02:51:09.713Z,60.05
2023-04-02T02:53:47.685Z,60.00
2023-04-02T02:56:16.247Z,59.75
2023-04-02T02:58:44.544Z,59.49
2023-04-02T03:01:14.149Z,59.79
2023-04-02T03:03:42.573Z,59.32
2023-04-02T03:06:16.714Z,59.54
2023-04-02T03:08:48.436Z,59.82
2023-04-02T03:11:21.707Z,59.80
2023-04-02T03:13:52.097Z,59.79
2023-04-02T03:16:28.479Z,59.74
2023-04-02T03:19:02.208Z,59.80
2023-04-02T03:21:36.322Z,59.54
2023-04-02T03:24:11.783Z,59.65
2023-04-02T03:26:44.151Z,59.47
2023-04-02T03:29:18.070Z,59.42
2023-04-02T03:31:49.853Z,59.36
2023-04-02T03:34:25.639Z,59.47
2023-04-02T03:36:59.125Z,59.33
2023-04-02T03:39:34.574Z,59.68
2023-04-02T03:42:08.683Z,59.71
2023-04-02T03:44:40.459Z,59.72
2023-04-02T03:47:17.728Z,59.60
2023-04-02T03:49:49.533Z,59.04
2023-04-02T03:52:24.457Z,59.31
2023-04-02T03:54:54.528Z,59.01
2023-04-02T03:57:28.753Z,59.18
2023-04-02T04:00:05.056Z,59.09
2023-04-02T04:02:44.332Z,58.90
2023-04-02T04:05:24.500Z,59.17
2023-04-02T04:07:54.685Z,59.08
2023-04-02T04:10:27.047Z,59.23
2023-04-02T04:13:02.952Z,59.47
2023-04-02T04:15:34.534Z,59.50
2023-04-02T04:18:10.672Z,59.39
2023-04-02T04:20:46.618Z,59.58
2023-04-02T04:23:30.212Z,59.29
2023-04-02T04:26:01.998Z,59.59
2023-04-02T04:28:38.680Z,59.57
2023-04-02T04:31:18.057Z,59.79
2023-04-02T04:33:54.923Z,60.09
2023-04-02T04:36:28.888Z,60.29
2023-04-02T04:39:01.578Z,60.48
2023-04-02T04:41:34.785Z,60.46
2023-04-02T04:44:08.041Z,60.85
2023-04-02T04:46:41.475Z,60.22
2023-04-02T04:49:16.976Z,61.04
2023-04-02T04:51:50.083Z,60.82
2023-04-02T04:54:18.664Z,61.08
2023-04-02T04:56:49.549Z,60.93
2023-04-02T04:59:24.008Z,61.22
2023-04-02T05:01:56.986Z,60.89
2023-04-02T05:04:32.237Z,60.87
2023-04-02T05:07:06.248Z,61.04
2023-04-02T05:09:39.353Z,61.25
2023-04-02T05:12:18.915Z,61.46
2023-04-02T05:14:52.530Z,60.71
2023-04-02T05:17:25.573Z,61.83
2023-04-02T05:20:00.584Z,61.12
2023-04-02T05:22:39.425Z,61.30
2023-04-02T05:25:20.316Z,60.90
2023-04-02T05:27:54.506Z,60.15
2023-04-02T05:30:41.071Z,60.04
2023-04-02T05:33:22.637Z,60.31
2023-04-02T05:35:57.699Z,60.71
2023-04-02T05:38:29.413Z,59.93
2023-04-02T05:41:02.516Z,60.15
2023-04-02T05:43:34.419Z,59.58
2023-04-02T05:46:14.342Z,59.63
2023-04-02T05:48:44.665Z,59.76
2023-04-02T05:51:20.068Z,59.17
2023-04-02T05:53:50.438Z,59.22
2023-04-02T05:56:23.061Z,59.34
2023-04-02T05:58:53.911Z,59.54
2023-04-02T06:01:33.644Z,58.97
2023-04-02T06:04:08.696Z,58.95
2023-04-02T06:07:01.848Z,59.04
2023-04-02T06:09:40.674Z,58.85
2023-04-02T06:12:17.085Z,59.28
2023-04-02T06:14:45.800Z,59.17
2023-04-02T06:17:16.339Z,59.08
2023-04-02T06:19:45.872Z,59.40
2023-04-02T06:22:24.036Z,58.77
2023-04-02T06:24:57.835Z,59.03
2023-04-02T06:27:28.245Z,59.33
2023-04-02T06:30:01.159Z,59.40
2023-04-02T06:32:29.269Z,59.04
2023-04-02T06:34:57.467Z,59.58
2023-04-02T06:37:32.748Z,59.69
2023-04-02T06:40:01.776Z,59.42
2023-04-02T06:42:33.514Z,59.10
2023-04-02T06:45:01.872Z,59.12
2023-04-02T06:47:34.393Z,59.60
2023-04-02T06:50:08.945Z,59.33
2023-04-02T06:52:44.761Z,59.27
2023-04-02T06:55:29.008Z,59.21
2023-04-02T06:57:57.164Z,59.26
2023-04-02T07:00:30.791Z,59.19
2023-04-02T07:03:02.104Z,59.22
2023-04-02T07:05:30.165Z,59.40
2023-04-02T07:07:59.568Z,59.28
2023-04-02T07:10:27.603Z,59.35
2023-04-02T07:12:55.584Z,59.48
2023-04-02T07:15:25.551Z,59.29
2023-04-02T07:17:54.975Z,59.22
2023-04-02T07:20:28.398Z,59.35
2023-04-02T07:22:57.120Z,59.46
2023-04-02T07:25:27.976Z,59.70
2023-04-02T07:27:56.339Z,59.26
2023-04-02T07:30:24.395Z,59.32
2023-04-02T07:32:52.509Z,57.62
2023-04-02T07:35:20.580Z,54.11
2023-04-02T07:37:48.544Z,50.89
2023-04-02T07:40:19.117Z,48.35
2023-04-02T07:42:48.549Z,45.90
2023-04-02T07:45:17.104Z,44.64
2023-04-02T07:47:45.228Z,43.86
2023-04-02T07:50:13.501Z,42.81
2023-04-02T07:52:43.392Z,43.02
2023-04-02T07:55:13.035Z,42.91
2023-04-02T07:57:44.308Z,43.82
2023-04-02T08:00:16.348Z,43.96
2023-04-02T08:02:44.480Z,44.35
2023-04-02T08:05:12.758Z,45.07
2023-04-02T08:07:41.680Z,45.71
2023-04-02T08:10:12.013Z,45.49
2023-04-02T08:12:40.858Z,45.50
2023-04-02T08:15:11.630Z,45.70
2023-04-02T08:17:41.222Z,45.62
2023-04-02T08:20:11.987Z,45.40
2023-04-02T08:22:40.066Z,45.36
2023-04-02T08:25:09.338Z,44.97
2023-04-02T08:27:37.419Z,43.70
2023-04-02T08:30:06.821Z,43.63
2023-04-02T08:32:34.997Z,43.53
2023-04-02T08:35:04.585Z,44.11
2023-04-02T08:37:32.674Z,43.32
2023-04-02T08:40:00.872Z,42.96
2023-04-02T08:42:36.082Z,43.13
2023-04-02T08:45:25.061Z,41.98
2023-04-02T08:47:56.231Z,41.88
2023-04-02T08:50:32.239Z,41.24
2023-04-02T08:53:01.962Z,41.66
2023-04-02T08:55:36.329Z,41.65
2023-04-02T08:58:19.442Z,41.82
2023-04-02T09:00:50.151Z,42.30
2023-04-02T09:03:21.372Z,42.74
2023-04-02T09:05:53.018Z,43.13
2023-04-02T09:08:24.696Z,43.32
2023-04-02T09:11:00.596Z,42.96
2023-04-02T09:13:30.296Z,43.16
2023-04-02T09:16:04.937Z,42.84
2023-04-02T09:18:33.915Z,42.77
2023-04-02T09:21:09.995Z,42.98
2023-04-02T09:23:38.216Z,42.95
2023-04-02T09:26:22.095Z,42.93
2023-04-02T09:28:50.549Z,42.42
2023-04-02T09:31:23.580Z,41.89
2023-04-02T09:33:54.722Z,41.41
2023-04-02T09:36:41.988Z,41.46
2023-04-02T09:39:18.989Z,41.67
2023-04-02T09:41:55.757Z,42.31
2023-04-02T09:44:32.852Z,42.09
2023-04-02T09:47:03.764Z,41.94
2023-04-02T09:49:34.595Z,42.36
2023-04-02T09:52:20.501Z,42.38
2023-04-02T09:55:06.086Z,42.43
2023-04-02T09:57:34.191Z,42.74
2023-04-02T10:00:21.800Z,42.54
2023-04-02T10:03:05.342Z,42.24
2023-04-02T10:08:20.930Z,42.56
2023-04-02T10:10:54.016Z,41.97
2023-04-02T10:13:28.017Z,41.86
2023-04-02T10:16:01.121Z,41.62
2023-04-02T10:18:40.146Z,41.69
2023-04-02T10:21:11.726Z,41.39
2023-04-02T10:23:41.888Z,40.91
2023-04-02T10:26:30.888Z,41.02
2023-04-02T10:29:17.682Z,41.13
2023-04-02T10:31:56.660Z,41.28
2023-04-02T10:34:29.099Z,41.45
2023-04-02T10:37:03.673Z,41.93
2023-04-02T10:39:39.293Z,42.09
2023-04-02T10:42:17.848Z,42.05
2023-04-02T10:44:53.098Z,41.74
2023-04-02T10:47:35.324Z,42.08
2023-04-02T10:50:22.472Z,41.85
2023-04-02T10:52:58.732Z,41.75
2023-04-02T10:55:31.644Z,41.52
2023-04-02T10:58:07.257Z,42.01
2023-04-02T11:00:40.510Z,41.61
2023-04-02T11:03:14.460Z,41.92
2023-04-02T11:05:44.984Z,41.16
2023-04-02T11:08:18.349Z,41.50
2023-04-02T11:10:51.562Z,41.07
2023-04-02T11:13:23.330Z,40.75
2023-04-02T11:15:51.731Z,40.81
2023-04-02T11:18:29.492Z,40.96
2023-04-02T11:21:00.754Z,40.46
2023-04-02T11:23:31.517Z,40.73
2023-04-02T11:26:33.833Z,40.70
2023-04-02T11:29:14.284Z,40.91
2023-04-02T11:31:43.918Z,40.72
2023-04-02T11:34:17.513Z,40.82
2023-04-02T11:37:03.564Z,41.36
2023-04-02T11:39:55.272Z,41.21
2023-04-02T11:42:34.476Z,41.73
2023-04-02T11:45:51.982Z,40.78
2023-04-02T11:48:36.268Z,40.89
2023-04-02T11:51:17.930Z,40.61
2023-04-02T11:53:48.557Z,40.74
2023-04-02T11:56:23.904Z,40.83
2023-04-02T11:59:05.735Z,40.65
2023-04-02T12:01:51.780Z,40.48
2023-04-02T12:04:47.187Z,40.45
2023-04-02T12:07:53.530Z,40.31
2023-04-02T12:10:23.336Z,40.37
2023-04-02T12:12:52.274Z,40.79
2023-04-02T12:15:45.190Z,40.82
2023-04-02T12:18:17.105Z,41.17
2023-04-02T12:20:50.916Z,41.26
2023-04-02T12:23:23.238Z,40.86
2023-04-02T12:25:58.634Z,41.34
2023-04-02T12:28:30.096Z,41.17
2023-04-02T12:31:12.546Z,41.58
2023-04-02T12:33:41.629Z,41.38
2023-04-02T12:36:21.459Z,41.44
2023-04-02T12:38:52.012Z,41.83
2023-04-02T12:41:25.161Z,41.63
2023-04-02T12:44:00.596Z,41.34
2023-04-02T12:46:29.226Z,41.43
2023-04-02T12:49:04.704Z,41.13
2023-04-02T12:51:34.804Z,41.28
2023-04-02T12:54:03.149Z,41.17
2023-04-02T12:56:31.344Z,41.28
2023-04-02T12:59:00.678Z,41.57
2023-04-02T13:01:31.719Z,41.79
2023-04-02T13:04:05.242Z,41.73
2023-04-02T13:06:36.705Z,41.88
2023-04-02T13:09:07.156Z,41.33
2023-04-02T13:11:37.372Z,41.42
2023-04-02T13:14:07.050Z,41.46
2023-04-02T13:16:37.105Z,41.33
2023-04-02T13:19:26.991Z,40.87
2023-04-02T13:21:58.261Z,40.80
2023-04-02T13:24:28.655Z,40.81
2023-04-02T13:26:58.764Z,40.55
2023-04-02T13:29:29.278Z,41.13
2023-04-02T13:32:00.331Z,41.39
2023-04-02T13:34:29.076Z,41.41
2023-04-02T13:36:58.689Z,41.72
2023-04-02T13:39:27.230Z,41.05
2023-04-02T13:41:58.669Z,41.29
2023-04-02T13:44:29.038Z,41.11
2023-04-02T13:46:58.646Z,41.13
2023-04-02T13:49:27.648Z,41.21
2023-04-02T13:51:59.131Z,41.63
2023-04-02T13:54:33.832Z,41.41
2023-04-02T13:57:02.323Z,42.01
2023-04-02T13:59:30.980Z,42.04
2023-04-02T14:02:05.677Z,41.85
2023-04-02T14:04:39.039Z,42.18
2023-04-02T14:07:29.531Z,42.25
2023-04-02T14:10:06.717Z,42.09
2023-04-02T14:12:54.184Z,42.62
2023-04-02T14:15:37.545Z,42.10
2023-04-02T14:18:30.043Z,42.50
2023-04-02T14:21:11.880Z,42.24
2023-04-02T14:23:57.143Z,42.40
2023-04-02T14:26:39.563Z,42.04
2023-04-02T14:29:17.368Z,41.87
2023-04-02T14:31:50.442Z,41.87
2023-04-02T14:34:24.228Z,42.35
2023-04-02T14:36:59.666Z,42.17
2023-04-02T14:39:38.997Z,41.59
2023-04-02T14:42:16.114Z,42.02
2023-04-02T14:44:50.184Z,41.88
2023-04-02T14:47:25.852Z,42.30
2023-04-02T14:49:56.648Z,42.44
2023-04-02T14:52:28.896Z,42.56
2023-04-02T14:55:02.386Z,43.24
2023-04-02T14:57:38.406Z,43.15
2023-04-02T15:00:10.134Z,43.47
2023-04-02T15:02:45.045Z,43.23
2023-04-02T15:05:19.095Z,43.33
2023-04-02T15:07:52.249Z,42.92
2023-04-02T15:10:33.202Z,43.17
2023-04-02T15:13:10.326Z,43.79
2023-04-02T15:15:44.463Z,43.40
2023-04-02T15:18:15.905Z,44.07
2023-04-02T15:20:57.517Z,43.64
2023-04-02T15:23:39.966Z,44.47
2023-04-02T15:26:19.143Z,44.80
2023-04-02T15:28:56.731Z,44.28
2023-04-02T15:31:29.403Z,44.13
2023-04-02T15:34:16.837Z,44.19
2023-04-02T15:37:14.378Z,44.51
2023-04-02T15:39:58.052Z,45.00
2023-04-02T15:42:30.920Z,44.52
2023-04-02T15:45:30.451Z,45.03
2023-04-02T15:48:15.107Z,45.04
2023-04-02T15:50:53.284Z,45.04
2023-04-02T15:53:40.470Z,44.93
2023-04-02T15:56:25.170Z,45.26
2023-04-02T15:59:27.834Z,45.54
2023-04-02T16:02:08.478Z,45.16
2023-04-02T16:04:47.465Z,45.05
2023-04-02T16:07:36.265Z,44.92
2023-04-02T16:10:14.237Z,45.66
2023-04-02T16:12:42.419Z,45.27
2023-04-02T16:15:17.912Z,45.37
2023-04-02T16:17:56.216Z,45.03
2023-04-02T16:20:27.517Z,44.98
2023-04-02T16:23:01.417Z,44.78
2023-04-02T16:25:34.560Z,45.00
2023-04-02T16:28:15.619Z,44.93
2023-04-02T16:30:51.499Z,44.92
2023-04-02T16:33:40.520Z,45.01
2023-04-02T16:36:19.843Z,44.92
2023-04-02T16:38:58.920Z,45.35
2023-04-02T16:41:41.540Z,45.48
2023-04-02T16:44:24.400Z,44.93
2023-04-02T16:47:03.466Z,45.56
2023-04-02T16:49:41.839Z,45.19
2023-04-02T16:52:21.195Z,45.69
2023-04-02T16:55:11.892Z,45.51
2023-04-02T16:57:51.628Z,45.88
2023-04-02T17:00:26.403Z,45.49
2023-04-02T17:03:07.340Z,44.88
2023-04-02T17:05:51.804Z,44.29
2023-04-02T17:08:25.270Z,44.30
2023-04-02T17:10:58.510Z,44.82
2023-04-02T17:13:32.868Z,45.27
2023-04-02T17:16:07.794Z,45.20
2023-04-02T17:18:36.829Z,45.20
2023-04-02T17:21:08.698Z,45.39
2023-04-02T17:23:55.802Z,45.05
2023-04-02T17:26:28.579Z,44.76
2023-04-02T17:28:58.766Z,45.24
2023-04-02T17:31:34.083Z,44.62
2023-04-02T17:34:10.910Z,45.25
2023-04-02T17:36:47.496Z,45.10
2023-04-02T17:39:23.163Z,45.53
2023-04-02T17:41:57.092Z,45.28
2023-04-02T17:44:47.360Z,45.78
2023-04-02T17:47:21.440Z,45.85
2023-04-02T17:50:05.559Z,45.43
2023-04-02T17:52:42.315Z,45.42
2023-04-02T17:55:19.750Z,45.96
2023-04-02T17:58:01.599Z,45.68
2023-04-02T18:00:57.375Z,45.79
2023-04-02T18:03:50.579Z,46.33
2023-04-02T18:06:22.876Z,46.02
2023-04-02T18:09:04.452Z,45.68
2023-04-02T18:11:44.464Z,46.33
2023-04-02T18:14:29.116Z,46.39
2023-04-02T18:17:06.397Z,46.48
2023-04-02T18:19:44.463Z,45.97
2023-04-02T18:22:20.710Z,45.99
2023-04-02T18:25:15.810Z,46.10
2023-04-02T18:27:56.659Z,46.05
2023-04-02T18:30:31.242Z,46.56
2023-04-02T18:33:28.418Z,45.81
2023-04-02T18:36:00.909Z,46.03
2023-04-02T18:38:40.999Z,46.35
2023-04-02T18:41:23.079Z,46.93
2023-04-02T18:44:01.707Z,46.52
2023-04-02T18:46:39.693Z,47.01
2023-04-02T18:49:21.756Z,46.71
2023-04-02T18:51:53.440Z,47.17
2023-04-02T18:54:24.674Z,46.86
2023-04-02T18:56:54.148Z,47.54
2023-04-02T18:59:33.617Z,46.76
2023-04-02T19:02:12.141Z,47.90
2023-04-02T19:04:43.035Z,46.99
2023-04-02T19:07:15.947Z,47.84
2023-04-02T19:09:47.686Z,47.93
2023-04-02T19:12:19.890Z,47.18
2023-04-02T19:14:50.251Z,47.97
2023-04-02T19:17:28.142Z,48.19
2023-04-02T19:20:04.404Z,48.21
2023-04-02T19:22:44.885Z,47.45
2023-04-02T19:25:29.861Z,47.29
2023-04-02T19:28:09.220Z,47.75
2023-04-02T19:30:52.323Z,47.74
2023-04-02T19:33:35.658Z,48.50
2023-04-02T19:36:15.884Z,48.60
2023-04-02T19:38:55.950Z,47.62
2023-04-02T19:41:30.758Z,48.95
2023-04-02T19:44:00.459Z,48.92
2023-04-02T19:46:28.911Z,49.03
2023-04-02T19:49:05.229Z,48.41
2023-04-02T19:51:33.680Z,48.94
2023-04-02T19:54:02.138Z,49.29
2023-04-02T19:56:30.207Z,49.45
2023-04-02T19:59:02.442Z,49.73
2023-04-02T20:01:36.264Z,50.43
2023-04-02T20:04:04.910Z,50.01
2023-04-02T20:06:33.258Z,50.53
2023-04-02T20:09:01.465Z,49.77
2023-04-02T20:11:29.656Z,50.31
2023-04-02T20:13:59.247Z,50.18
2023-04-02T20:16:27.344Z,50.95
2023-04-02T20:18:55.670Z,50.59
2023-04-02T20:21:23.902Z,50.88
2023-04-02T20:23:54.604Z,50.55
2023-04-02T20:26:23.498Z,51.36
2023-04-02T20:28:51.546Z,50.66
2023-04-02T20:31:21.189Z,50.86
2023-04-02T20:33:49.382Z,51.62
2023-04-02T20:36:18.851Z,51.21
2023-04-02T20:38:47.048Z,51.02
2023-04-02T20:41:16.629Z,51.08
2023-04-02T20:43:44.709Z,50.97
2023-04-02T20:46:13.769Z,51.24
2023-04-02T20:48:43.631Z,51.40
2023-04-02T20:51:15.371Z,52.08
2023-04-02T20:53:44.276Z,51.11
2023-04-02T20:56:14.523Z,51.58
2023-04-02T20:58:43.924Z,51.24
2023-04-02T21:01:15.721Z,51.22
2023-04-02T21:03:45.540Z,51.61
2023-04-02T21:06:15.303Z,51.01
2023-04-02T21:08:43.509Z,51.81
2023-04-02T21:11:12.626Z,51.66
2023-04-02T21:13:44.087Z,51.11
2023-04-02T21:16:16.133Z,52.09
2023-04-02T21:18:45.999Z,51.80
2023-04-02T21:21:16.040Z,52.07
2023-04-02T21:23:45.967Z,52.34
2023-04-02T21:26:16.045Z,52.29
2023-04-02T21:28:45.206Z,52.11
2023-04-02T21:31:15.429Z,51.67
2023-04-02T21:33:46.625Z,51.50
2023-04-02T21:36:16.071Z,52.45
2023-04-02T21:38:44.784Z,52.43
2023-04-02T21:41:14.751Z,51.88
2023-04-02T21:43:42.981Z,52.34
2023-04-02T21:46:11.665Z,51.60
2023-04-02T21:48:40.742Z,52.58
2023-04-02T21:51:13.146Z,51.95
2023-04-02T21:53:42.134Z,52.18
2023-04-02T21:56:13.412Z,52.46
2023-04-02T21:58:41.733Z,52.78
2023-04-02T22:01:16.941Z,52.63
2023-04-02T22:03:52.462Z,51.86
2023-04-02T22:06:23.391Z,52.85
2023-04-02T22:08:55.235Z,52.64
2023-04-02T22:11:26.173Z,51.98
2023-04-02T22:13:55.220Z,52.18
2023-04-02T22:16:25.705Z,52.75
2023-04-02T22:18:55.956Z,52.19
2023-04-02T22:21:25.758Z,52.36
2023-04-02T22:23:54.115Z,52.38
2023-04-02T22:26:23.868Z,53.01
2023-04-02T22:28:52.737Z,52.93
2023-04-02T22:31:23.571Z,52.50
2023-04-02T22:33:52.823Z,52.62
2023-04-02T22:36:22.757Z,52.59
2023-04-02T22:38:52.615Z,52.77
2023-04-02T22:41:22.626Z,53.13
2023-04-02T22:43:50.966Z,52.96
2023-04-02T22:46:20.448Z,53.18
2023-04-02T22:48:49.605Z,52.67
2023-04-02T22:51:19.806Z,52.61
2023-04-02T22:53:48.779Z,52.68
2023-04-02T22:56:21.703Z,53.06
2023-04-02T22:58:50.124Z,53.06
2023-04-02T23:01:21.504Z,52.94
2023-04-02T23:03:50.420Z,52.24
2023-04-02T23:06:19.540Z,52.87
2023-04-02T23:08:47.957Z,52.37
2023-04-02T23:11:19.417Z,52.93
2023-04-02T23:13:49.729Z,52.45
2023-04-02T23:16:18.495Z,53.04
2023-04-02T23:18:48.215Z,52.75
2023-04-02T23:21:16.919Z,53.28
2023-04-02T23:23:45.611Z,52.77
2023-04-02T23:26:15.991Z,53.29
2023-04-02T23:28:45.771Z,52.99
2023-04-02T23:31:16.402Z,53.49
2023-04-02T23:33:45.005Z,53.70
2023-04-02T23:36:15.975Z,53.21
2023-04-02T23:38:44.125Z,53.81
2023-04-02T23:41:14.962Z,53.51
2023-04-02T23:43:43.320Z,53.51
2023-04-02T23:46:12.907Z,54.01
2023-04-02T23:48:41.278Z,54.52
2023-04-02T23:51:09.448Z,54.12
2023-04-02T23:53:37.565Z,54.21
2023-04-02T23:56:06.218Z,54.29
2023-04-02T23:58:34.394Z,54.28
